N12KBM CYVR-KSEA
Flight info
| Callsign | N12KBM |
|---|---|
| Flight time | N/A |
| Altitude | VFR |
| Route | YVR JAWBN |
| Aircraft | PA28/L-DOV/C |
Departure
| Time | 2026-05-05 02:42 |
|---|---|
| Airport | Vancouver International Airport (CYVR) |
Arrival
| Time | N/A |
|---|---|
| Airport | Seattle–Tacoma International Airport (KSEA) |
| Time | Latitude | Longitude | Altitude | Speed | Heading |
|---|---|---|---|---|---|
| 2026-05-05 02:23 | 49.18858 | -123.16519 | 13 ft | 0 kts | 12° |
| 2026-05-05 02:33 | 49.18848 | -123.16492 | 13 ft | 9 kts | 170° |
| 2026-05-05 02:33 | 49.18813 | -123.16482 | 13 ft | 1 kts | 165° |
| 2026-05-05 02:35 | 49.18790 | -123.16479 | 13 ft | 0 kts | 182° |
| 2026-05-05 02:36 | 49.18746 | -123.16465 | 13 ft | 9 kts | 148° |
| 2026-05-05 02:36 | 49.18722 | -123.16392 | 13 ft | 11 kts | 101° |
| 2026-05-05 02:36 | 49.18711 | -123.16323 | 13 ft | 4 kts | 114° |
| 2026-05-05 02:36 | 49.18692 | -123.16280 | 14 ft | 4 kts | 135° |
| 2026-05-05 02:37 | 49.18671 | -123.16250 | 14 ft | 5 kts | 138° |
| 2026-05-05 02:37 | 49.18647 | -123.16216 | 14 ft | 7 kts | 135° |
| 2026-05-05 02:37 | 49.18606 | -123.16194 | 14 ft | 0 kts | 188° |
| 2026-05-05 02:38 | 49.18601 | -123.16196 | 14 ft | 5 kts | 187° |
| 2026-05-05 02:38 | 49.18543 | -123.16210 | 14 ft | 9 kts | 192° |
| 2026-05-05 02:39 | 49.18499 | -123.16244 | 14 ft | 1 kts | 242° |
| 2026-05-05 02:39 | 49.18499 | -123.16245 | 14 ft | 0 kts | 242° |
| 2026-05-05 02:40 | 49.18498 | -123.16248 | 14 ft | 4 kts | 242° |
| 2026-05-05 02:40 | 49.18495 | -123.16266 | 14 ft | 0 kts | 277° |
| 2026-05-05 02:41 | 49.18503 | -123.16341 | 14 ft | 31 kts | 279° |
| 2026-05-05 02:41 | 49.18571 | -123.16965 | 91 ft | 76 kts | 278° |
| 2026-05-05 02:42 | 49.18636 | -123.17727 | 448 ft | 69 kts | 275° |
| 2026-05-05 02:42 | 49.18681 | -123.18481 | 724 ft | 76 kts | 275° |
| 2026-05-05 02:42 | 49.18776 | -123.19385 | 953 ft | 86 kts | 279° |
| 2026-05-05 02:42 | 49.18900 | -123.20326 | 1118 ft | 108 kts | 281° |
| 2026-05-05 02:43 | 49.19013 | -123.21564 | 1252 ft | 123 kts | 271° |
| 2026-05-05 02:43 | 49.18799 | -123.22853 | 1349 ft | 132 kts | 224° |
| 2026-05-05 02:43 | 49.17896 | -123.23131 | 1434 ft | 139 kts | 181° |
| 2026-05-05 02:43 | 49.17003 | -123.23144 | 1927 ft | 111 kts | 180° |
| 2026-05-05 02:44 | 49.16382 | -123.22948 | 2462 ft | 91 kts | 162° |
| 2026-05-05 02:44 | 49.15685 | -123.22585 | 2590 ft | 109 kts | 166° |
| 2026-05-05 02:44 | 49.14913 | -123.22334 | 2715 ft | 125 kts | 169° |
| 2026-05-05 02:44 | 49.14073 | -123.21638 | 2510 ft | 146 kts | 137° |
| 2026-05-05 02:45 | 49.13075 | -123.21127 | 2448 ft | 139 kts | 169° |
| 2026-05-05 02:45 | 49.12308 | -123.20723 | 3056 ft | 107 kts | 166° |
| 2026-05-05 02:45 | 49.11598 | -123.20458 | 3322 ft | 109 kts | 164° |
| 2026-05-05 02:45 | 49.10860 | -123.20101 | 3535 ft | 117 kts | 162° |
| 2026-05-05 02:46 | 49.10035 | -123.19722 | 3580 ft | 133 kts | 166° |
| 2026-05-05 02:46 | 49.09119 | -123.19292 | 3669 ft | 138 kts | 161° |
| 2026-05-05 02:46 | 49.08238 | -123.18783 | 3888 ft | 133 kts | 155° |
| 2026-05-05 02:46 | 49.07364 | -123.18169 | 3910 ft | 144 kts | 156° |
| 2026-05-05 02:47 | 49.06485 | -123.17556 | 4139 ft | 136 kts | 156° |
| 2026-05-05 02:47 | 49.05612 | -123.16938 | 4225 ft | 140 kts | 156° |
| 2026-05-05 02:47 | 49.04738 | -123.16300 | 4332 ft | 142 kts | 155° |
| 2026-05-05 02:47 | 49.03815 | -123.15660 | 4380 ft | 145 kts | 158° |
| 2026-05-05 02:48 | 49.02876 | -123.15114 | 4459 ft | 145 kts | 162° |
| 2026-05-05 02:48 | 49.01921 | -123.14676 | 4596 ft | 142 kts | 166° |
| 2026-05-05 02:48 | 49.00959 | -123.14303 | 4641 ft | 146 kts | 166° |
| 2026-05-05 02:48 | 48.99966 | -123.13924 | 4714 ft | 145 kts | 168° |
| 2026-05-05 02:49 | 48.98991 | -123.13626 | 4778 ft | 146 kts | 169° |
| 2026-05-05 02:49 | 48.97991 | -123.13352 | 4846 ft | 145 kts | 172° |
| 2026-05-05 02:49 | 48.97001 | -123.13180 | 4980 ft | 143 kts | 175° |
| 2026-05-05 02:49 | 48.96000 | -123.13022 | 4996 ft | 147 kts | 175° |
| 2026-05-05 02:50 | 48.94982 | -123.12908 | 5013 ft | 149 kts | 178° |
| 2026-05-05 02:50 | 48.93960 | -123.12878 | 5115 ft | 145 kts | 181° |
| 2026-05-05 02:50 | 48.92808 | -123.12866 | 4204 ft | 182 kts | 179° |
| 2026-05-05 02:50 | 48.91553 | -123.12822 | 4113 ft | 160 kts | 180° |
| 2026-05-05 02:51 | 48.90557 | -123.12860 | 4412 ft | 140 kts | 181° |
| 2026-05-05 02:51 | 48.89617 | -123.12908 | 4757 ft | 122 kts | 185° |
| 2026-05-05 02:51 | 48.88808 | -123.13027 | 5079 ft | 114 kts | 186° |
| 2026-05-05 02:51 | 48.88004 | -123.13101 | 5333 ft | 114 kts | 182° |
| 2026-05-05 02:52 | 48.87192 | -123.13069 | 5469 ft | 124 kts | 178° |
| 2026-05-05 02:52 | 48.86294 | -123.13013 | 5652 ft | 125 kts | 180° |
| 2026-05-05 02:52 | 48.85430 | -123.13021 | 5862 ft | 124 kts | 184° |
| 2026-05-05 02:52 | 48.84594 | -123.13121 | 6140 ft | 118 kts | 184° |
| 2026-05-05 02:53 | 48.83760 | -123.13159 | 6288 ft | 124 kts | 184° |
| 2026-05-05 02:53 | 48.82876 | -123.13317 | 6420 ft | 127 kts | 187° |
| 2026-05-05 02:53 | 48.81985 | -123.13448 | 6591 ft | 127 kts | 186° |
| 2026-05-05 02:53 | 48.81118 | -123.13597 | 6809 ft | 124 kts | 187° |
| 2026-05-05 02:54 | 48.80250 | -123.13749 | 6932 ft | 127 kts | 188° |
| 2026-05-05 02:54 | 48.79640 | -123.13877 | 6937 ft | 134 kts | 187° |
| 2026-05-05 02:54 | 48.78721 | -123.14061 | 7036 ft | 136 kts | 189° |
| 2026-05-05 02:54 | 48.77760 | -123.14321 | 7009 ft | 143 kts | 193° |
| 2026-05-05 02:55 | 48.76819 | -123.14639 | 7185 ft | 135 kts | 192° |
| 2026-05-05 02:55 | 48.75890 | -123.14893 | 7231 ft | 139 kts | 189° |
| 2026-05-05 02:55 | 48.74911 | -123.15087 | 7219 ft | 144 kts | 188° |
| 2026-05-05 02:55 | 48.73937 | -123.15283 | 7255 ft | 144 kts | 188° |
| 2026-05-05 02:56 | 48.72916 | -123.15458 | 7131 ft | 151 kts | 186° |
| 2026-05-05 02:56 | 48.71912 | -123.15624 | 7330 ft | 136 kts | 189° |
| 2026-05-05 02:56 | 48.70987 | -123.15922 | 7432 ft | 137 kts | 195° |
| 2026-05-05 02:56 | 48.70049 | -123.16320 | 7423 ft | 142 kts | 197° |
| 2026-05-05 02:57 | 48.69100 | -123.16771 | 7459 ft | 142 kts | 199° |
| 2026-05-05 02:57 | 48.68173 | -123.17202 | 7503 ft | 142 kts | 197° |
| 2026-05-05 02:57 | 48.67222 | -123.17679 | 7510 ft | 143 kts | 204° |
| 2026-05-05 02:57 | 48.66358 | -123.18361 | 7597 ft | 138 kts | 208° |
| 2026-05-05 02:58 | 48.65423 | -123.18891 | 7399 ft | 151 kts | 187° |
| 2026-05-05 02:58 | 48.64389 | -123.18938 | 7404 ft | 149 kts | 181° |
| 2026-05-05 02:58 | 48.63356 | -123.18983 | 7388 ft | 148 kts | 184° |
| 2026-05-05 02:58 | 48.62331 | -123.19008 | 7258 ft | 155 kts | 183° |
| 2026-05-05 02:59 | 48.61286 | -123.19071 | 7408 ft | 139 kts | 184° |
| 2026-05-05 02:59 | 48.60342 | -123.19125 | 7522 ft | 136 kts | 179° |
| 2026-05-05 02:59 | 48.59400 | -123.19013 | 7565 ft | 140 kts | 175° |
| 2026-05-05 02:59 | 48.58409 | -123.18789 | 7517 ft | 144 kts | 172° |
| 2026-05-05 03:00 | 48.57436 | -123.18628 | 7628 ft | 139 kts | 176° |
| 2026-05-05 03:00 | 48.56469 | -123.18515 | 7647 ft | 141 kts | 175° |
| 2026-05-05 03:00 | 48.55448 | -123.18421 | 7522 ft | 151 kts | 180° |
| 2026-05-05 03:00 | 48.54415 | -123.18462 | 7562 ft | 147 kts | 182° |
| 2026-05-05 03:01 | 48.53404 | -123.18537 | 7592 ft | 145 kts | 186° |
| 2026-05-05 03:01 | 48.52394 | -123.18701 | 7583 ft | 146 kts | 188° |
| 2026-05-05 03:01 | 48.51387 | -123.18941 | 7552 ft | 149 kts | 190° |
| 2026-05-05 03:01 | 48.50370 | -123.19258 | 7556 ft | 147 kts | 195° |
| 2026-05-05 03:02 | 48.49414 | -123.19696 | 7613 ft | 144 kts | 199° |
| 2026-05-05 03:02 | 48.48441 | -123.20065 | 7593 ft | 144 kts | 181° |
| 2026-05-05 03:02 | 48.47489 | -123.19488 | 7340 ft | 156 kts | 157° |
| 2026-05-05 03:02 | 48.46510 | -123.18881 | 7469 ft | 143 kts | 159° |
| 2026-05-05 03:03 | 48.45591 | -123.18408 | 7593 ft | 139 kts | 162° |
| 2026-05-05 03:03 | 48.44646 | -123.17991 | 7582 ft | 144 kts | 168° |
| 2026-05-05 03:03 | 48.43686 | -123.17639 | 7669 ft | 138 kts | 166° |
| 2026-05-05 03:03 | 48.42745 | -123.17252 | 7693 ft | 140 kts | 164° |
| 2026-05-05 03:04 | 48.41812 | -123.16768 | 7697 ft | 140 kts | 152° |
| 2026-05-05 03:04 | 48.40987 | -123.16013 | 7750 ft | 141 kts | 150° |
| 2026-05-05 03:04 | 48.40105 | -123.15257 | 7711 ft | 144 kts | 149° |
| 2026-05-05 03:04 | 48.39244 | -123.14539 | 7758 ft | 142 kts | 157° |
| 2026-05-05 03:05 | 48.38317 | -123.14144 | 7802 ft | 141 kts | 167° |
| 2026-05-05 03:05 | 48.37330 | -123.13839 | 7754 ft | 145 kts | 171° |
| 2026-05-05 03:05 | 48.36323 | -123.13720 | 7721 ft | 148 kts | 182° |
| 2026-05-05 03:05 | 48.35299 | -123.13964 | 7660 ft | 149 kts | 192° |
| 2026-05-05 03:06 | 48.34252 | -123.14272 | 7467 ft | 157 kts | 193° |
| 2026-05-05 03:06 | 48.33167 | -123.14570 | 7304 ft | 158 kts | 189° |
| 2026-05-05 03:06 | 48.32073 | -123.14800 | 7136 ft | 161 kts | 188° |
| 2026-05-05 03:06 | 48.30956 | -123.15004 | 6923 ft | 163 kts | 186° |
| 2026-05-05 03:07 | 48.29848 | -123.14858 | 6865 ft | 157 kts | 168° |
| 2026-05-05 03:07 | 48.28791 | -123.14510 | 6813 ft | 155 kts | 166° |
| 2026-05-05 03:07 | 48.16831 | -123.14098 | 6717 ft | 158 kts | 167° |
| 2026-05-05 03:07 | 48.15775 | -123.13805 | 6808 ft | 147 kts | 175° |
| 2026-05-05 03:08 | 48.14721 | -123.13786 | 6619 ft | 158 kts | 182° |
| 2026-05-05 03:08 | 48.13680 | -123.13876 | 6000 ft | 148 kts | 186° |
| 2026-05-05 03:08 | 48.12707 | -123.14228 | 5443 ft | 141 kts | 201° |
| 2026-05-05 03:08 | 48.11914 | -123.14919 | 5257 ft | 125 kts | 219° |
| 2026-05-05 03:09 | 48.11289 | -123.15730 | 5123 ft | 117 kts | 226° |
| 2026-05-05 03:09 | 48.10884 | -123.16695 | 5092 ft | 101 kts | 245° |
| 2026-05-05 03:09 | 48.10646 | -123.17889 | 4718 ft | 143 kts | 258° |
| 2026-05-05 03:09 | 48.10443 | -123.19400 | 4597 ft | 152 kts | 259° |
| 2026-05-05 03:10 | 48.10294 | -123.21058 | 4283 ft | 163 kts | 268° |
| 2026-05-05 03:10 | 48.10265 | -123.22796 | 3875 ft | 171 kts | 268° |
| 2026-05-05 03:10 | 48.10238 | -123.24587 | 3367 ft | 172 kts | 262° |
| 2026-05-05 03:10 | 48.09947 | -123.26363 | 3018 ft | 160 kts | 252° |
| 2026-05-05 03:11 | 48.09732 | -123.27941 | 3049 ft | 153 kts | 263° |
| 2026-05-05 03:11 | 48.09736 | -123.29518 | 3042 ft | 152 kts | 271° |
| 2026-05-05 03:11 | 48.09786 | -123.31061 | 2420 ft | 149 kts | 274° |
| 2026-05-05 03:11 | 48.10080 | -123.38124 | 1455 ft | 1281 kts | 274° |
| 2026-05-05 03:12 | 48.11416 | -123.45967 | 780 ft | 788 kts | 274° |
| 2026-05-05 03:12 | 48.11072 | -123.44966 | 1257 ft | 133 kts | 274° |
| 2026-05-05 03:12 | 48.11197 | -123.46193 | 868 ft | 115 kts | 282° |
| 2026-05-05 03:12 | 48.11420 | -123.47241 | 571 ft | 97 kts | 290° |
| 2026-05-05 03:13 | 48.11578 | -123.48083 | 436 ft | 77 kts | 284° |
| 2026-05-05 03:13 | 48.11718 | -123.48937 | 355 ft | 90 kts | 285° |
| 2026-05-05 03:13 | 48.11865 | -123.49782 | 277 ft | 72 kts | 285° |
| 2026-05-05 03:13 | 48.11965 | -123.50355 | 261 ft | 32 kts | 286° |